Time;durP1;ratioP1;P1;durP2;ratioP2;P2;SDS_P1;SDS_P2;PMS_P1;PMS_P2;Temp;Humidity;BMP_temperature;BMP_pressure;BME280_temperature;BME280_humidity;BME280_pressure;Samples;Min_cycle;Max_cycle;Signal;HPM_P1;HPM_P2
2022/04/29 00:00:31;;;;;;;6.07;1.90;;;7.90;99.90;;;;;;4998391;28;20503;-63
2022/04/29 00:02:57;;;;;;;7.10;2.15;;;7.90;99.90;;;;;;4998568;28;20034;-61
2022/04/29 00:05:23;;;;;;;7.63;2.22;;;7.90;99.90;;;;;;4999382;28;20053;-61
2022/04/29 00:07:48;;;;;;;5.32;2.10;;;7.90;99.90;;;;;;4998364;28;20384;-61
2022/04/29 00:10:15;;;;;;;6.07;2.35;;;7.80;99.90;;;;;;4999921;28;20148;-59
2022/04/29 00:12:43;;;;;;;5.25;1.83;;;7.80;99.90;;;;;;4994902;28;20026;-62
2022/04/29 00:15:10;;;;;;;12.38;2.50;;;7.80;99.90;;;;;;5000628;28;20046;-61
2022/04/29 00:17:36;;;;;;;8.57;2.20;;;7.80;99.90;;;;;;4993544;28;20035;-61
2022/04/29 00:20:03;;;;;;;5.60;2.17;;;7.80;99.90;;;;;;4995795;28;20045;-63
2022/04/29 00:22:29;;;;;;;6.35;2.20;;;7.80;99.90;;;;;;4999462;28;20057;-61
2022/04/29 00:24:55;;;;;;;9.95;3.78;;;7.80;99.90;;;;;;4997828;28;20056;-58
2022/04/29 00:27:20;;;;;;;5.43;2.33;;;7.80;99.90;;;;;;4998881;28;20042;-61
2022/04/29 00:29:46;;;;;;;6.35;2.13;;;7.80;99.90;;;;;;4999038;28;20030;-63
2022/04/29 00:32:11;;;;;;;8.90;2.20;;;7.80;99.90;;;;;;4997487;28;20045;-61
2022/04/29 00:34:37;;;;;;;8.55;3.08;;;7.80;99.90;;;;;;4999554;28;20033;-61
2022/04/29 00:37:03;;;;;;;4.57;2.17;;;7.70;99.90;;;;;;4996659;28;20095;-61
2022/04/29 00:39:28;;;;;;;5.97;1.92;;;7.70;99.90;;;;;;4999986;28;20042;-61
2022/04/29 00:41:54;;;;;;;9.38;2.42;;;7.70;99.90;;;;;;4997411;28;20405;-61
2022/04/29 00:44:20;;;;;;;3.75;1.83;;;7.80;99.90;;;;;;4997411;28;20037;-63
2022/04/29 00:46:47;;;;;;;10.70;2.78;;;7.70;99.90;;;;;;4997174;28;20030;-61
2022/04/29 00:49:14;;;;;;;3.47;2.00;;;7.70;99.90;;;;;;4997786;28;20035;-62
2022/04/29 00:51:43;;;;;;;8.48;2.20;;;7.70;99.90;;;;;;5001970;28;20038;-63
2022/04/29 00:54:12;;;;;;;6.88;1.92;;;7.70;99.90;;;;;;4995435;28;20038;-62
2022/04/29 00:56:41;;;;;;;8.23;2.00;;;7.70;99.90;;;;;;4999467;28;20487;-61
2022/04/29 00:59:11;;;;;;;5.60;2.55;;;7.70;99.90;;;;;;4996664;28;20094;-63
2022/04/29 01:01:37;;;;;;;8.57;2.80;;;7.80;99.90;;;;;;5000014;28;20041;-62
2022/04/29 01:04:04;;;;;;;14.80;2.30;;;7.70;99.90;;;;;;4991867;28;20061;-63
2022/04/29 01:06:31;;;;;;;5.78;2.08;;;7.70;99.90;;;;;;4999735;28;20084;-62
2022/04/29 01:08:56;;;;;;;8.13;2.55;;;7.70;99.90;;;;;;4996559;28;20034;-62
2022/04/29 01:11:25;;;;;;;7.03;2.00;;;7.70;99.90;;;;;;4998899;28;20042;-62
2022/04/29 01:13:52;;;;;;;6.70;2.53;;;7.70;99.90;;;;;;4996421;28;20127;-60
2022/04/29 01:16:19;;;;;;;8.65;2.30;;;7.70;99.90;;;;;;4998453;28;20026;-61
2022/04/29 01:18:51;;;;;;;5.88;1.98;;;7.70;99.90;;;;;;4998392;28;20433;-61
2022/04/29 01:21:17;;;;;;;7.25;2.78;;;7.70;99.90;;;;;;4998154;28;20503;-62
2022/04/29 01:23:43;;;;;;;12.80;2.80;;;7.70;99.90;;;;;;4997234;28;20038;-61
2022/04/29 01:26:14;;;;;;;4.55;1.90;;;7.70;99.90;;;;;;4996514;28;20030;-63
2022/04/29 01:28:48;;;;;;;5.68;2.00;;;7.70;99.90;;;;;;5000144;28;20053;-64
2022/04/29 01:31:15;;;;;;;8.98;2.42;;;7.80;99.90;;;;;;4997321;28;20041;-63
2022/04/29 01:33:42;;;;;;;7.53;2.20;;;7.70;99.90;;;;;;4996020;28;20688;-62
2022/04/29 01:36:09;;;;;;;7.78;2.50;;;7.70;99.90;;;;;;4996571;28;20508;-62
2022/04/29 01:38:35;;;;;;;11.75;2.70;;;7.70;99.90;;;;;;4999619;28;20022;-60
2022/04/29 01:41:01;;;;;;;9.65;2.50;;;7.80;99.90;;;;;;4995891;28;20031;-61
2022/04/29 01:43:27;;;;;;;6.40;2.38;;;7.70;99.90;;;;;;4999434;28;20037;-61
2022/04/29 01:45:54;;;;;;;17.67;3.00;;;7.70;99.90;;;;;;4998335;28;20494;-62
2022/04/29 01:48:20;;;;;;;5.43;2.33;;;7.70;99.90;;;;;;4999177;28;20038;-61
2022/04/29 01:50:46;;;;;;;8.45;2.35;;;7.80;99.90;;;;;;4993490;28;20026;-63
2022/04/29 01:53:11;;;;;;;4.45;2.17;;;7.70;99.90;;;;;;4997763;28;20037;-61
2022/04/29 01:55:37;;;;;;;9.43;2.35;;;7.70;99.90;;;;;;4995738;28;20034;-61
2022/04/29 01:58:03;;;;;;;12.38;2.30;;;7.80;99.90;;;;;;4995950;28;20113;-62
2022/04/29 02:00:29;;;;;;;10.35;2.58;;;7.80;99.90;;;;;;4995273;28;20037;-61
2022/04/29 02:02:55;;;;;;;10.13;2.35;;;7.70;99.90;;;;;;4995108;28;20096;-60
2022/04/29 02:05:21;;;;;;;5.75;2.50;;;7.70;99.90;;;;;;5000228;28;20046;-59
2022/04/29 02:07:47;;;;;;;6.45;2.22;;;7.70;99.90;;;;;;5000728;28;20116;-60
2022/04/29 02:10:13;;;;;;;5.38;2.00;;;7.70;99.90;;;;;;5000142;28;20121;-59
2022/04/29 02:12:38;;;;;;;12.07;2.55;;;7.80;99.90;;;;;;5003110;28;20038;-60
2022/04/29 02:15:05;;;;;;;12.32;3.60;;;7.80;99.90;;;;;;4999362;28;20034;-60
2022/04/29 02:17:30;;;;;;;8.18;2.47;;;7.70;99.90;;;;;;5002721;28;20044;-61
2022/04/29 02:19:56;;;;;;;6.47;2.50;;;7.70;99.90;;;;;;4999332;28;20038;-60
2022/04/29 02:22:22;;;;;;;5.53;2.25;;;7.70;99.90;;;;;;5001987;28;20038;-60
2022/04/29 02:24:47;;;;;;;7.90;2.15;;;7.70;99.90;;;;;;4999845;28;20075;-60
2022/04/29 02:27:13;;;;;;;13.98;2.88;;;7.70;99.90;;;;;;4999961;28;20031;-60
2022/04/29 02:29:38;;;;;;;11.32;2.47;;;7.70;99.90;;;;;;5001922;28;20022;-61
2022/04/29 02:32:04;;;;;;;14.15;2.20;;;7.70;99.90;;;;;;4999338;28;20040;-60
2022/04/29 02:34:30;;;;;;;6.95;2.30;;;7.70;99.90;;;;;;4997949;28;20038;-61
2022/04/29 02:36:56;;;;;;;17.10;3.03;;;7.70;99.90;;;;;;4999019;28;20513;-61
2022/04/29 02:39:22;;;;;;;10.75;2.55;;;7.70;99.90;;;;;;5002195;28;20137;-61
2022/04/29 02:41:48;;;;;;;6.10;2.40;;;7.70;99.90;;;;;;4999783;28;20084;-61
2022/04/29 02:44:13;;;;;;;6.18;2.08;;;7.60;99.90;;;;;;4998862;28;20045;-61
2022/04/29 02:49:24;;;;;;;7.65;2.20;;;7.70;99.90;;;;;;4999289;28;20049;-60
2022/04/29 02:51:49;;;;;;;17.63;3.60;;;7.70;99.90;;;;;;5000406;28;20402;-60
2022/04/29 02:54:15;;;;;;;7.45;2.70;;;7.70;99.90;;;;;;5001521;28;20038;-61
2022/04/29 02:56:41;;;;;;;7.15;2.17;;;7.70;99.90;;;;;;5000334;28;20558;-61
2022/04/29 02:59:06;;;;;;;12.30;3.65;;;7.70;99.90;;;;;;4999048;28;20038;-62
2022/04/29 03:01:33;;;;;;;8.95;2.63;;;7.60;99.90;;;;;;4998735;28;20042;-60
2022/04/29 03:03:59;;;;;;;9.35;2.78;;;7.60;99.90;;;;;;4997725;28;20475;-61
2022/04/29 03:06:26;;;;;;;5.93;2.65;;;7.60;99.90;;;;;;5002488;28;20038;-62
2022/04/29 03:08:52;;;;;;;8.63;2.42;;;7.60;99.90;;;;;;4998750;28;20030;-60
2022/04/29 03:11:19;;;;;;;6.93;2.90;;;7.70;99.90;;;;;;5002961;28;20367;-62
2022/04/29 03:13:44;;;;;;;13.55;2.47;;;7.60;99.90;;;;;;4999277;28;20046;-60
2022/04/29 03:16:10;;;;;;;9.70;3.08;;;7.60;99.90;;;;;;4999457;28;20509;-62
2022/04/29 03:18:36;;;;;;;5.40;2.05;;;7.50;99.90;;;;;;4999613;28;20513;-61
2022/04/29 03:21:03;;;;;;;13.73;3.47;;;7.50;99.90;;;;;;5001716;28;20406;-60
2022/04/29 03:23:29;;;;;;;14.85;2.55;;;7.50;99.90;;;;;;4999851;28;20463;-59
2022/04/29 03:25:55;;;;;;;9.95;2.25;;;7.50;99.90;;;;;;4997504;28;20054;-60
2022/04/29 03:28:20;;;;;;;13.82;2.80;;;7.40;99.90;;;;;;4998881;28;20039;-61
2022/04/29 03:30:47;;;;;;;20.55;5.13;;;7.40;99.90;;;;;;4998911;28;20045;-61
2022/04/29 03:33:13;;;;;;;7.75;2.35;;;7.40;99.90;;;;;;4996911;28;20034;-61
2022/04/29 03:35:47;;;;;;;5.65;2.35;;;7.40;99.90;;;;;;5001470;28;20042;-60
2022/04/29 03:38:12;;;;;;;16.25;3.15;;;7.50;99.90;;;;;;4999509;28;20673;-60
2022/04/29 03:40:38;;;;;;;12.05;3.45;;;7.50;99.90;;;;;;4998127;28;20122;-61
2022/04/29 03:43:05;;;;;;;15.05;4.00;;;7.40;99.90;;;;;;4997137;28;20088;-62
2022/04/29 03:45:31;;;;;;;13.10;3.80;;;7.40;99.90;;;;;;5000848;28;20065;-59
2022/04/29 03:47:58;;;;;;;14.38;3.13;;;7.40;99.90;;;;;;4997640;28;20078;-62
2022/04/29 03:50:25;;;;;;;14.45;2.75;;;7.40;99.90;;;;;;4992635;28;20426;-61
2022/04/29 03:52:57;;;;;;;8.05;3.45;;;7.40;99.90;;;;;;4997221;28;20438;-61
2022/04/29 03:55:25;;;;;;;21.30;3.33;;;7.40;99.90;;;;;;4996693;28;20489;-61
2022/04/29 03:57:53;;;;;;;7.45;2.00;;;7.30;99.90;;;;;;4997865;28;20023;-61
2022/04/29 04:00:19;;;;;;;15.27;3.35;;;7.30;99.90;;;;;;4997819;28;20038;-61
2022/04/29 04:02:45;;;;;;;8.98;2.80;;;7.30;99.90;;;;;;4996839;28;20579;-60
2022/04/29 04:05:11;;;;;;;8.27;2.40;;;7.20;99.90;;;;;;4999647;28;20046;-60
2022/04/29 04:07:36;;;;;;;11.38;2.65;;;7.30;99.90;;;;;;4999774;28;20053;-61
2022/04/29 04:10:06;;;;;;;7.85;2.85;;;7.30;99.90;;;;;;4997537;28;20045;-60
2022/04/29 04:12:42;;;;;;;6.90;2.50;;;7.30;99.90;;;;;;4998116;28;20449;-61
2022/04/29 04:15:09;;;;;;;8.07;3.47;;;7.20;99.90;;;;;;4996659;28;20116;-62
2022/04/29 04:17:34;;;;;;;11.25;2.38;;;7.20;99.90;;;;;;5001136;28;20535;-60
2022/04/29 04:20:00;;;;;;;10.32;3.13;;;7.20;99.90;;;;;;5000293;28;20505;-62
2022/04/29 04:22:27;;;;;;;12.77;2.80;;;7.10;99.90;;;;;;4996773;28;20086;-60
2022/04/29 04:24:53;;;;;;;13.27;4.35;;;7.20;99.90;;;;;;5001019;28;20402;-60
2022/04/29 04:27:19;;;;;;;13.55;3.20;;;7.10;99.90;;;;;;4997694;28;20031;-60
2022/04/29 04:29:44;;;;;;;12.65;2.85;;;7.10;99.90;;;;;;5003852;28;20033;-62
2022/04/29 04:32:10;;;;;;;9.57;2.55;;;7.10;99.90;;;;;;4998973;28;20042;-60
2022/04/29 04:34:51;;;;;;;11.65;3.05;;;7.10;99.90;;;;;;4998391;28;20031;-61
2022/04/29 04:37:22;;;;;;;9.55;2.83;;;7.10;99.90;;;;;;4998084;28;20170;-61
2022/04/29 04:39:48;;;;;;;5.97;2.50;;;7.10;99.90;;;;;;4997846;28;20162;-61
2022/04/29 04:42:14;;;;;;;8.27;2.70;;;7.10;99.90;;;;;;4997567;28;20046;-61
2022/04/29 04:44:40;;;;;;;14.07;3.15;;;7.10;99.90;;;;;;4998208;28;20039;-61
2022/04/29 04:47:06;;;;;;;13.27;3.90;;;7.10;99.90;;;;;;4997631;28;20109;-61
2022/04/29 04:49:33;;;;;;;7.38;2.92;;;7.10;99.90;;;;;;5000433;28;20046;-60
2022/04/29 04:51:58;;;;;;;7.38;2.72;;;7.10;99.90;;;;;;4994871;28;20514;-61
2022/04/29 04:54:24;;;;;;;11.07;3.03;;;7.10;99.90;;;;;;4995212;28;20057;-66
2022/04/29 04:56:49;;;;;;;9.95;3.38;;;7.10;99.90;;;;;;5000636;28;20505;-61
2022/04/29 04:59:15;;;;;;;7.28;2.50;;;7.10;99.90;;;;;;5000756;28;20494;-60
2022/04/29 05:01:41;;;;;;;9.07;2.58;;;7.10;99.90;;;;;;4994173;28;20048;-62
2022/04/29 05:04:06;;;;;;;8.35;2.75;;;7.20;99.90;;;;;;5000038;28;20030;-62
2022/04/29 05:06:32;;;;;;;5.50;2.50;;;7.20;99.90;;;;;;4998361;28;20030;-62
2022/04/29 05:08:58;;;;;;;14.93;3.35;;;7.20;99.90;;;;;;4999008;28;20045;-61
2022/04/29 05:11:23;;;;;;;16.00;4.10;;;7.20;99.90;;;;;;4997271;28;20100;-60
2022/04/29 05:13:49;;;;;;;16.67;2.67;;;7.30;99.90;;;;;;4999222;28;20128;-61
2022/04/29 05:16:15;;;;;;;13.27;3.08;;;7.30;99.90;;;;;;4997855;28;20050;-61
2022/04/29 05:18:40;;;;;;;7.18;2.47;;;7.30;99.90;;;;;;5002649;28;20030;-60
2022/04/29 05:21:06;;;;;;;8.70;3.28;;;7.40;99.90;;;;;;4999681;28;20124;-62
2022/04/29 05:23:31;;;;;;;8.63;2.63;;;7.40;99.90;;;;;;4999231;28;20142;-61
2022/04/29 05:25:57;;;;;;;18.85;2.90;;;7.30;99.90;;;;;;4997946;28;20034;-60
2022/04/29 05:28:23;;;;;;;10.88;2.53;;;7.40;99.90;;;;;;4998503;28;20034;-63
2022/04/29 05:30:49;;;;;;;7.53;2.47;;;7.50;99.90;;;;;;4995029;28;20491;-61
2022/04/29 05:33:15;;;;;;;11.82;4.45;;;7.50;99.90;;;;;;5002844;28;20034;-62
2022/04/29 05:35:41;;;;;;;10.23;2.60;;;7.50;99.90;;;;;;4995484;28;20052;-61
2022/04/29 05:38:06;;;;;;;12.80;3.35;;;7.50;99.90;;;;;;5000662;28;20732;-61
2022/04/29 05:43:17;;;;;;;8.75;2.17;;;7.70;99.90;;;;;;5000604;28;20037;-60
2022/04/29 05:45:42;;;;;;;8.25;2.97;;;7.70;99.90;;;;;;5006333;28;20037;-60
2022/04/29 05:48:08;;;;;;;9.23;2.47;;;7.70;99.90;;;;;;5003174;28;20115;-60
2022/04/29 05:50:34;;;;;;;8.63;2.92;;;7.70;99.90;;;;;;5005548;28;20034;-60
2022/04/29 05:52:59;;;;;;;5.13;1.90;;;7.80;99.90;;;;;;5004311;28;20044;-61
2022/04/29 05:55:25;;;;;;;10.68;2.40;;;7.80;99.90;;;;;;5007702;28;20045;-60
2022/04/29 05:57:51;;;;;;;9.82;2.50;;;7.90;99.90;;;;;;5003067;28;20113;-60
2022/04/29 06:00:19;;;;;;;11.68;3.40;;;7.90;99.90;;;;;;5002922;28;20045;-60
2022/04/29 06:02:46;;;;;;;8.00;2.80;;;7.80;99.90;;;;;;5004475;28;20472;-60
2022/04/29 06:05:12;;;;;;;6.50;2.00;;;7.90;99.90;;;;;;5003146;28;20118;-61
2022/04/29 06:07:37;;;;;;;15.40;3.10;;;8.10;99.90;;;;;;5005147;28;20125;-61
2022/04/29 06:10:05;;;;;;;11.82;3.08;;;8.20;99.90;;;;;;5004173;28;20088;-62
2022/04/29 06:12:36;;;;;;;11.02;2.58;;;8.30;99.90;;;;;;5003846;28;20512;-60
2022/04/29 06:15:01;;;;;;;14.13;2.78;;;8.40;99.90;;;;;;5006760;28;20038;-61
2022/04/29 06:17:27;;;;;;;8.55;2.78;;;8.60;99.90;;;;;;5005604;28;20088;-61
2022/04/29 06:19:53;;;;;;;10.07;2.67;;;8.80;99.90;;;;;;5003837;28;20030;-62
2022/04/29 06:22:18;;;;;;;6.22;2.35;;;9.10;99.90;;;;;;5005395;28;20053;-63
2022/04/29 06:24:44;;;;;;;7.38;2.20;;;9.10;99.90;;;;;;5001945;28;20113;-62
2022/04/29 06:27:10;;;;;;;7.60;2.30;;;9.20;99.90;;;;;;5003355;28;20034;-61
2022/04/29 06:29:36;;;;;;;16.92;2.65;;;9.20;99.90;;;;;;5004941;28;20034;-61
2022/04/29 06:32:01;;;;;;;10.00;2.63;;;9.20;99.90;;;;;;5000259;28;20026;-59
2022/04/29 06:34:27;;;;;;;6.15;2.38;;;9.20;99.90;;;;;;4997183;28;20046;-60
2022/04/29 06:36:52;;;;;;;17.05;2.75;;;9.20;99.90;;;;;;4997061;28;20111;-63
2022/04/29 06:39:18;;;;;;;12.73;2.15;;;9.10;99.90;;;;;;4998748;28;20041;-60
2022/04/29 06:41:43;;;;;;;11.82;2.83;;;9.20;99.90;;;;;;5000400;28;20418;-62
2022/04/29 06:44:09;;;;;;;7.22;1.95;;;9.30;99.90;;;;;;5000975;28;20042;-64
2022/04/29 06:46:35;;;;;;;8.18;2.22;;;9.40;99.90;;;;;;5000430;28;20038;-62
2022/04/29 06:49:00;;;;;;;10.23;2.35;;;9.50;99.90;;;;;;4997090;28;20045;-60
2022/04/29 06:51:26;;;;;;;8.88;2.58;;;9.60;99.90;;;;;;5002605;28;20052;-60
2022/04/29 06:53:52;;;;;;;8.35;2.33;;;9.80;99.90;;;;;;4998732;28;20038;-62
2022/04/29 06:56:17;;;;;;;11.52;2.60;;;10.10;99.90;;;;;;5002697;28;20034;-60
2022/04/29 06:58:43;;;;;;;4.68;2.33;;;10.20;99.90;;;;;;4999298;28;20034;-59
2022/04/29 07:01:09;;;;;;;9.65;2.40;;;10.20;99.90;;;;;;5002028;28;20036;-60
2022/04/29 07:03:36;;;;;;;11.38;3.10;;;10.20;99.90;;;;;;4991091;28;20049;-62
2022/04/29 07:06:04;;;;;;;6.13;1.90;;;10.40;99.90;;;;;;4996659;28;20404;-61
2022/04/29 07:08:30;;;;;;;11.35;2.17;;;10.40;99.90;;;;;;4999558;28;20034;-62
2022/04/29 07:10:56;;;;;;;5.45;1.98;;;10.60;99.90;;;;;;5000526;28;20486;-60
2022/04/29 07:13:21;;;;;;;18.83;2.83;;;10.90;99.90;;;;;;4999260;28;20065;-61
2022/04/29 07:15:48;;;;;;;6.15;1.98;;;10.90;99.90;;;;;;4997679;28;20041;-60
2022/04/29 07:18:17;;;;;;;11.05;2.40;;;10.90;99.90;;;;;;5000950;28;20064;-61
2022/04/29 07:20:43;;;;;;;11.50;2.33;;;10.80;99.90;;;;;;4991547;28;20037;-60
2022/04/29 07:23:09;;;;;;;7.60;1.88;;;10.90;99.90;;;;;;4995813;28;20035;-62
2022/04/29 07:25:35;;;;;;;8.50;2.10;;;11.00;99.90;;;;;;4997871;28;20080;-63
2022/04/29 07:28:01;;;;;;;7.82;1.80;;;11.20;99.90;;;;;;4994962;28;20414;-61
2022/04/29 07:30:27;;;;;;;9.25;2.03;;;11.20;99.90;;;;;;4997011;28;20046;-60
2022/04/29 07:32:53;;;;;;;8.98;2.30;;;11.30;99.90;;;;;;4991282;28;20047;-60
2022/04/29 07:43:32;;;;;;;9.23;2.95;;;11.10;99.90;;;;;;4991312;28;21870;-60
2022/04/29 07:45:59;;;;;;;7.78;2.20;;;11.10;99.90;;;;;;4993921;28;20491;-60
2022/04/29 07:48:25;;;;;;;10.18;2.55;;;11.20;99.90;;;;;;4994771;28;20058;-61
2022/04/29 07:50:51;;;;;;;7.75;1.95;;;11.20;99.90;;;;;;4993877;28;20025;-60
2022/04/29 07:53:17;;;;;;;4.53;1.88;;;11.20;99.90;;;;;;4993705;28;20102;-60
2022/04/29 07:55:43;;;;;;;7.10;2.22;;;11.30;99.90;;;;;;4997951;28;20042;-61
2022/04/29 07:58:09;;;;;;;6.70;1.98;;;11.20;99.90;;;;;;4994769;28;20034;-59
2022/04/29 08:00:37;;;;;;;6.97;2.03;;;11.30;99.90;;;;;;4995172;28;20097;-60
2022/04/29 08:03:04;;;;;;;4.97;1.73;;;11.30;99.90;;;;;;4998197;28;20030;-61
2022/04/29 08:05:30;;;;;;;9.27;2.50;;;11.30;99.90;;;;;;4993670;28;20034;-59
2022/04/29 08:07:59;;;;;;;11.48;2.08;;;11.30;99.90;;;;;;4998185;28;20121;-61
2022/04/29 08:10:25;;;;;;;10.73;1.95;;;11.40;99.90;;;;;;4999225;28;20046;-62
2022/04/29 08:12:51;;;;;;;7.03;2.20;;;11.40;99.90;;;;;;4994276;28;20061;-61
2022/04/29 08:15:18;;;;;;;7.57;1.85;;;11.60;99.90;;;;;;4996470;28;20077;-61
2022/04/29 08:17:43;;;;;;;13.55;2.47;;;11.50;99.90;;;;;;4999246;28;20064;-61
2022/04/29 08:20:11;;;;;;;14.90;1.77;;;11.60;99.90;;;;;;4994898;28;20490;-61
2022/04/29 08:22:37;;;;;;;7.60;1.67;;;11.70;99.90;;;;;;4994585;28;20030;-60
2022/04/29 08:25:03;;;;;;;11.00;2.20;;;11.50;99.90;;;;;;4999241;28;20103;-60
2022/04/29 08:27:29;;;;;;;8.18;2.25;;;11.60;99.90;;;;;;4994122;28;20092;-60
2022/04/29 08:29:56;;;;;;;9.80;2.30;;;11.60;99.90;;;;;;4990882;28;20034;-63
2022/04/29 08:32:22;;;;;;;6.05;1.80;;;11.50;99.90;;;;;;4996274;28;20046;-61
2022/04/29 08:34:48;;;;;;;14.45;2.47;;;11.60;99.90;;;;;;4991371;28;20034;-59
2022/04/29 08:37:14;;;;;;;10.13;2.25;;;11.50;99.90;;;;;;4993272;28;20116;-61
2022/04/29 08:39:39;;;;;;;5.68;2.28;;;11.50;99.90;;;;;;4997533;28;20046;-60
2022/04/29 08:42:06;;;;;;;9.05;2.33;;;11.30;99.90;;;;;;4993178;28;20073;-62
2022/04/29 08:44:34;;;;;;;5.97;2.25;;;11.30;99.90;;;;;;4993895;28;20034;-60
2022/04/29 08:47:00;;;;;;;7.10;1.85;;;11.30;99.90;;;;;;4997200;28;20034;-62
2022/04/29 08:49:26;;;;;;;7.97;2.47;;;11.20;99.90;;;;;;4998712;28;20045;-61
2022/04/29 08:51:52;;;;;;;7.38;2.00;;;11.20;99.90;;;;;;4994456;28;20474;-61
2022/04/29 09:00:04;;;;;;;5.38;2.20;;;11.30;99.90;;;;;;4990085;28;20769;-63
2022/04/29 09:02:38;;;;;;;8.73;2.05;;;11.30;99.90;;;;;;4992059;28;20084;-61
2022/04/29 09:05:13;;;;;;;7.70;1.88;;;11.30;99.90;;;;;;4991942;28;20410;-60
2022/04/29 09:08:02;;;;;;;4.97;2.00;;;11.20;99.90;;;;;;4992592;28;20129;-61
2022/04/29 09:10:34;;;;;;;5.60;1.92;;;11.10;99.90;;;;;;4995157;28;20045;-63
2022/04/29 09:13:13;;;;;;;12.52;2.38;;;11.00;99.90;;;;;;4993448;28;20100;-62
2022/04/29 09:15:49;;;;;;;10.00;2.60;;;11.00;99.90;;;;;;4991065;28;20386;-62
2022/04/29 09:18:48;;;;;;;6.38;2.30;;;10.90;99.90;;;;;;4996979;28;20450;-60
2022/04/29 09:21:19;;;;;;;10.73;2.63;;;11.10;99.90;;;;;;4994024;28;20038;-63
2022/04/29 09:23:56;;;;;;;6.10;2.40;;;11.20;99.90;;;;;;4992453;28;20088;-61
2022/04/29 09:26:29;;;;;;;5.55;2.03;;;11.20;99.90;;;;;;4993712;28;20049;-61
2022/04/29 09:29:08;;;;;;;8.30;2.58;;;11.10;99.90;;;;;;4998749;28;20053;-62
2022/04/29 09:31:55;;;;;;;5.45;2.20;;;11.10;99.90;;;;;;4995748;28;20062;-61
2022/04/29 09:34:45;;;;;;;4.35;1.75;;;11.20;99.90;;;;;;4991890;28;20050;-61
2022/04/29 09:37:21;;;;;;;8.35;2.40;;;11.40;99.90;;;;;;4992561;28;20752;-61
2022/04/29 09:39:50;;;;;;;7.13;2.35;;;11.40;99.90;;;;;;4997670;28;20557;-61
2022/04/29 09:42:16;;;;;;;6.18;2.00;;;11.50;99.90;;;;;;4990438;28;20045;-62
2022/04/29 09:44:42;;;;;;;8.50;2.40;;;11.50;99.90;;;;;;4997526;28;20034;-60
2022/04/29 09:47:21;;;;;;;4.63;1.90;;;11.60;99.90;;;;;;4996083;28;20038;-62
2022/04/29 09:49:54;;;;;;;13.50;3.17;;;11.60;99.90;;;;;;4997831;28;20034;-63
2022/04/29 09:52:20;;;;;;;8.65;2.25;;;11.80;99.90;;;;;;4998793;28;20489;-63
2022/04/29 09:54:46;;;;;;;7.80;2.38;;;11.90;99.90;;;;;;4994816;28;20065;-63
2022/04/29 09:57:23;;;;;;;10.35;2.70;;;11.90;99.90;;;;;;4996774;28;20038;-62
2022/04/29 09:59:51;;;;;;;7.15;2.78;;;12.00;99.90;;;;;;4997316;28;20038;-62
2022/04/29 10:02:21;;;;;;;7.78;2.50;;;12.00;99.90;;;;;;4995868;28;20121;-61
2022/04/29 10:04:48;;;;;;;6.82;1.85;;;12.00;99.90;;;;;;4995785;28;20504;-64
2022/04/29 10:07:16;;;;;;;8.73;2.92;;;12.00;99.90;;;;;;4992870;28;20135;-61
2022/04/29 10:09:48;;;;;;;7.30;2.20;;;11.90;99.90;;;;;;4987326;28;20042;-62
2022/04/29 10:12:18;;;;;;;5.00;2.13;;;11.90;99.90;;;;;;4994706;28;20104;-61
2022/04/29 10:14:48;;;;;;;4.10;2.13;;;11.90;99.90;;;;;;4992909;28;20174;-62
2022/04/29 10:23:02;;;;;;;6.93;2.35;;;12.00;99.90;;;;;;4996037;28;20205;-60
2022/04/29 10:25:28;;;;;;;12.95;2.45;;;12.10;99.90;;;;;;4995729;28;20394;-61
2022/04/29 10:27:54;;;;;;;5.95;2.60;;;12.20;99.90;;;;;;4996310;28;20064;-61
2022/04/29 10:30:40;;;;;;;6.38;2.97;;;12.30;99.90;;;;;;4996824;28;20144;-60
2022/04/29 10:33:16;;;;;;;12.85;2.83;;;12.40;99.90;;;;;;4995621;28;20045;-62
2022/04/29 10:35:53;;;;;;;9.32;2.40;;;12.50;99.90;;;;;;4996009;28;20501;-61
2022/04/29 10:38:30;;;;;;;8.95;2.40;;;12.40;99.90;;;;;;4993766;28;20489;-61
2022/04/29 10:41:21;;;;;;;7.32;2.58;;;12.40;99.90;;;;;;4995957;28;20042;-61
2022/04/29 10:43:50;;;;;;;;;;;12.40;99.90;;;;;;4993032;28;20034;-62
2022/04/29 10:46:23;;;;;;;9.18;2.45;;;12.30;99.90;;;;;;4994695;28;19917;-60
2022/04/29 10:48:53;;;;;;;4.97;2.28;;;12.30;99.90;;;;;;4990655;28;20045;-62
2022/04/29 10:51:26;;;;;;;18.02;3.67;;;12.30;99.90;;;;;;4999356;28;20188;-61
2022/04/29 10:53:58;;;;;;;4.28;1.70;;;12.50;99.90;;;;;;4995841;28;20054;-62
2022/04/29 10:56:26;;;;;;;7.00;1.90;;;12.50;99.90;;;;;;4995963;28;20030;-61
2022/04/29 10:59:13;;;;;;;7.03;2.05;;;12.50;99.90;;;;;;4995837;28;20195;-61
2022/04/29 11:01:40;;;;;;;8.25;2.63;;;12.50;99.90;;;;;;4997522;28;20822;-60
2022/04/29 11:04:14;;;;;;;6.55;2.17;;;12.50;99.90;;;;;;4993862;28;20363;-62
2022/04/29 11:06:46;;;;;;;7.07;2.83;;;12.40;99.90;;;;;;4994865;28;20049;-61
2022/04/29 11:09:28;;;;;;;4.60;1.70;;;12.40;99.90;;;;;;4999848;28;20033;-61
2022/04/29 11:11:55;;;;;;;3.75;1.40;;;12.40;99.90;;;;;;4996878;28;20037;-61
2022/04/29 11:14:21;;;;;;;5.15;1.58;;;12.40;99.90;;;;;;4993860;28;20082;-61
2022/04/29 11:16:49;;;;;;;7.20;1.70;;;12.40;99.90;;;;;;4996740;28;20050;-61
2022/04/29 11:19:20;;;;;;;3.10;1.42;;;12.60;99.90;;;;;;4998517;28;20133;-61
2022/04/29 11:24:42;;;;;;;5.93;1.55;;;12.80;99.90;;;;;;4990410;28;20525;-61
2022/04/29 11:27:08;;;;;;;3.28;1.52;;;12.80;99.90;;;;;;4992146;28;20042;-62
2022/04/29 11:29:44;;;;;;;2.85;1.52;;;12.80;99.90;;;;;;4997346;28;20092;-60
2022/04/29 11:32:11;;;;;;;3.65;1.38;;;12.80;99.90;;;;;;4993790;28;20714;-61
2022/04/29 11:34:54;;;;;;;3.92;1.38;;;12.90;99.90;;;;;;4996309;28;20104;-61
2022/04/29 11:37:28;;;;;;;6.95;1.98;;;12.90;99.90;;;;;;4999676;28;20532;-61
2022/04/29 11:40:01;;;;;;;5.22;1.98;;;13.00;99.90;;;;;;4998631;28;20042;-60
2022/04/29 11:42:27;;;;;;;4.43;1.65;;;12.90;99.90;;;;;;4987569;28;20041;-60
2022/04/29 11:44:53;;;;;;;4.53;1.48;;;12.90;99.90;;;;;;4996897;28;20034;-61
2022/04/29 11:47:26;;;;;;;5.65;1.80;;;12.90;99.90;;;;;;4996470;28;20796;-61
2022/04/29 11:49:53;;;;;;;3.60;1.33;;;12.80;99.90;;;;;;4994237;28;20038;-61
2022/04/29 11:52:22;;;;;;;2.78;1.45;;;12.90;99.90;;;;;;4995837;28;20041;-61
2022/04/29 11:54:58;;;;;;;9.98;2.28;;;13.00;99.90;;;;;;4994684;28;20097;-61
2022/04/29 11:57:26;;;;;;;6.53;2.10;;;12.90;99.90;;;;;;4996864;28;20038;-61
2022/04/29 11:59:52;;;;;;;4.78;1.70;;;13.00;99.90;;;;;;4992498;28;20830;-61
2022/04/29 12:02:19;;;;;;;5.03;2.47;;;13.10;99.90;;;;;;4999643;28;20031;-60
2022/04/29 12:04:58;;;;;;;5.60;1.90;;;13.30;99.90;;;;;;4996646;28;20475;-61
2022/04/29 12:07:37;;;;;;;3.30;1.85;;;13.50;99.90;;;;;;4995507;28;20065;-61
2022/04/29 12:10:14;;;;;;;6.32;1.70;;;13.50;99.90;;;;;;4993307;28;20031;-62
2022/04/29 12:12:40;;;;;;;9.68;2.08;;;13.70;99.90;;;;;;4996631;28;20038;-59
2022/04/29 12:15:09;;;;;;;2.88;1.65;;;13.80;99.90;;;;;;4992463;28;20045;-62
2022/04/29 12:17:40;;;;;;;5.00;1.88;;;13.90;99.80;;;;;;4992718;28;20034;-61
2022/04/29 12:20:08;;;;;;;6.70;1.80;;;14.00;99.90;;;;;;4996909;28;20047;-61
2022/04/29 12:22:39;;;;;;;2.53;1.80;;;14.30;99.90;;;;;;4990640;28;20494;-61
2022/04/29 12:25:39;;;;;;;4.85;1.98;;;14.30;99.30;;;;;;4991928;28;20038;-61
2022/04/29 12:28:21;;;;;;;5.28;1.85;;;14.50;99.40;;;;;;4974820;28;20049;-60
2022/04/29 12:37:10;;;;;;;4.88;2.33;;;14.20;99.70;;;;;;4995051;28;20537;-61
2022/04/29 12:39:43;;;;;;;6.25;2.33;;;14.20;99.60;;;;;;4986998;28;20033;-61
2022/04/29 12:42:11;;;;;;;7.57;2.15;;;14.30;99.90;;;;;;4992037;28;20038;-61
2022/04/29 12:45:05;;;;;;;4.20;2.00;;;14.40;99.70;;;;;;4998279;28;20714;-60
2022/04/29 12:47:38;;;;;;;6.88;2.10;;;14.40;99.90;;;;;;4993151;28;20551;-61
2022/04/29 12:50:20;;;;;;;8.73;2.33;;;14.50;99.70;;;;;;4988954;28;20145;-61
2022/04/29 12:53:10;;;;;;;4.32;2.28;;;14.50;99.30;;;;;;4991188;28;20173;-61
2022/04/29 12:55:44;;;;;;;10.05;2.42;;;14.50;99.40;;;;;;4995665;28;20038;-62
2022/04/29 12:58:12;;;;;;;6.18;2.22;;;14.40;99.30;;;;;;4993306;28;20838;-61
2022/04/29 13:00:44;;;;;;;9.18;2.75;;;14.30;99.40;;;;;;4991236;28;20042;-62
2022/04/29 13:03:16;;;;;;;8.15;2.10;;;14.30;99.50;;;;;;4993008;28;20034;-59
2022/04/29 13:05:42;;;;;;;6.05;2.63;;;14.30;99.60;;;;;;4997071;28;20550;-62
2022/04/29 13:08:09;;;;;;;6.10;2.53;;;14.10;99.50;;;;;;4993429;28;20163;-61
2022/04/29 13:10:45;;;;;;;5.47;2.20;;;14.20;99.90;;;;;;4994344;28;20514;-60
2022/04/29 13:13:11;;;;;;;5.55;2.20;;;14.30;99.90;;;;;;4997098;28;20438;-61
2022/04/29 13:15:40;;;;;;;7.38;2.30;;;14.40;99.90;;;;;;4994881;28;20529;-61
2022/04/29 13:18:10;;;;;;;5.72;2.30;;;14.50;99.90;;;;;;4992584;28;25780;-60
2022/04/29 13:20:36;;;;;;;14.90;2.20;;;14.50;99.40;;;;;;4993721;28;20046;-60
2022/04/29 13:23:01;;;;;;;10.13;2.10;;;14.50;99.50;;;;;;4995126;28;20413;-61
2022/04/29 13:25:27;;;;;;;3.17;1.80;;;14.50;99.30;;;;;;4994496;28;20030;-60
2022/04/29 13:27:53;;;;;;;3.53;1.90;;;14.50;99.10;;;;;;4995640;28;20145;-61
2022/04/29 13:30:19;;;;;;;15.55;2.53;;;14.50;99.00;;;;;;4993126;28;20033;-61